createdAt,value
2022-10-17T14:23:04.523Z,26.70
2022-10-17T14:26:08.885Z,30.40
2022-10-17T14:29:07.230Z,30.80
2022-10-17T14:32:02.227Z,31.30
2022-10-17T14:35:01.418Z,31.70
2022-10-17T14:38:02.774Z,31.90
2022-10-17T14:40:52.537Z,31.90
2022-10-17T14:43:39.905Z,31.80
2022-10-17T14:46:27.449Z,31.80
2022-10-17T14:49:24.263Z,31.90
2022-10-17T14:52:26.605Z,31.90
2022-10-17T14:55:24.442Z,31.60
2022-10-17T14:58:20.376Z,30.90
2022-10-17T15:01:07.519Z,30.60
2022-10-17T15:03:54.402Z,30.30
2022-10-17T15:06:41.665Z,30.10
2022-10-17T15:09:29.055Z,29.80
2022-10-17T15:12:19.636Z,29.60
2022-10-17T15:15:07.248Z,29.30
2022-10-17T15:17:55.219Z,28.90
2022-10-17T15:20:43.076Z,28.60
2022-10-17T15:23:30.232Z,28.20
2022-10-17T15:26:20.492Z,27.90
2022-10-17T15:29:09.701Z,27.60
2022-10-17T15:31:57.424Z,27.30
2022-10-17T15:34:46.023Z,27.10
2022-10-17T15:37:35.347Z,26.80
2022-10-17T15:40:25.115Z,26.50
2022-10-17T15:43:15.021Z,26.30
2022-10-17T15:46:11.117Z,26.00
2022-10-17T15:49:02.882Z,25.80
2022-10-17T15:51:55.063Z,25.60
2022-10-17T15:54:43.200Z,25.40
2022-10-17T16:00:22.615Z,24.90
2022-10-17T16:03:10.954Z,24.80
2022-10-17T16:05:58.241Z,24.50
2022-10-17T16:08:48.993Z,24.30
2022-10-17T16:11:38.755Z,24.10
2022-10-17T16:14:26.103Z,23.90
2022-10-17T16:17:15.665Z,23.50
2022-10-17T16:22:52.195Z,23.20
2022-10-17T16:25:40.179Z,23.00
2022-10-17T16:28:27.299Z,22.80
2022-10-17T16:31:22.237Z,22.60
2022-10-17T16:34:09.767Z,22.50
2022-10-17T16:36:58.248Z,22.20
2022-10-17T16:39:49.200Z,22.10
2022-10-17T16:42:36.380Z,21.90
2022-10-17T16:45:24.912Z,21.70
2022-10-17T16:48:12.384Z,21.60
2022-10-17T16:50:59.443Z,21.40
2022-10-17T16:53:50.346Z,21.30
2022-10-17T16:56:37.685Z,21.10
2022-10-17T16:59:25.126Z,21.00
2022-10-17T17:02:14.393Z,20.80
2022-10-17T17:05:02.329Z,20.70
2022-10-17T17:07:49.612Z,20.60
2022-10-17T17:10:38.020Z,20.40
2022-10-17T17:13:24.882Z,20.10
2022-10-17T17:16:14.667Z,20.20
2022-10-17T17:19:04.582Z,20.00
2022-10-17T17:21:51.704Z,19.90
2022-10-17T17:24:38.417Z,19.80
2022-10-17T17:27:29.417Z,19.70
2022-10-17T17:30:17.251Z,19.60
2022-10-17T17:33:04.616Z,19.50
2022-10-17T17:35:56.770Z,19.40
2022-10-17T17:38:43.994Z,19.30
2022-10-17T17:41:31.532Z,19.20
2022-10-17T17:44:20.162Z,19.10
2022-10-17T17:47:08.143Z,19.00
2022-10-17T17:49:55.447Z,18.90
2022-10-17T17:52:45.692Z,18.80
2022-10-17T17:55:33.192Z,18.70
2022-10-17T17:58:20.353Z,18.60
2022-10-17T18:01:15.064Z,18.50
2022-10-17T18:04:02.562Z,18.40
2022-10-17T18:06:49.539Z,18.40
2022-10-17T18:09:36.345Z,18.30
2022-10-17T18:12:23.715Z,18.10
2022-10-17T18:15:11.266Z,18.10
2022-10-17T18:17:59.614Z,18.10
2022-10-17T18:20:46.909Z,18.10
2022-10-17T18:23:33.633Z,17.90
2022-10-17T18:26:21.008Z,17.80
2022-10-17T18:29:08.523Z,17.80
2022-10-17T18:31:55.511Z,17.70
2022-10-17T18:34:44.203Z,17.60
2022-10-17T18:37:31.280Z,17.60
2022-10-17T18:40:18.262Z,17.50
2022-10-17T18:43:05.844Z,17.40
2022-10-17T18:45:57.094Z,17.40
2022-10-17T18:48:46.283Z,17.30
2022-10-17T18:51:34.907Z,17.20
2022-10-17T18:54:24.618Z,17.20
2022-10-17T18:57:11.395Z,17.10
2022-10-17T18:59:58.739Z,17.10
2022-10-17T19:02:45.669Z,17.00
2022-10-17T19:05:34.985Z,16.90
2022-10-17T19:08:23.469Z,16.90
2022-10-17T19:11:12.235Z,16.80
2022-10-17T19:14:02.141Z,16.80
2022-10-17T19:16:50.954Z,16.70
2022-10-17T19:19:38.500Z,16.70
2022-10-17T19:22:26.000Z,16.60
2022-10-17T19:25:14.774Z,16.60
2022-10-17T19:28:02.019Z,16.50
2022-10-17T19:30:49.032Z,16.50
2022-10-17T19:33:36.906Z,16.50
2022-10-17T19:36:28.863Z,16.40
2022-10-17T19:39:22.817Z,16.40
2022-10-17T19:42:11.256Z,16.30
2022-10-17T19:44:58.444Z,16.30
2022-10-17T19:47:45.749Z,16.20
2022-10-17T19:50:33.572Z,16.20
2022-10-17T19:53:24.399Z,16.10
2022-10-17T19:56:12.378Z,16.10
2022-10-17T19:59:00.931Z,16.10
2022-10-17T20:01:48.407Z,16.00
2022-10-17T20:04:37.540Z,16.00
2022-10-17T20:07:32.382Z,16.00
2022-10-17T20:10:19.591Z,16.00
2022-10-17T20:13:06.809Z,15.90
2022-10-17T20:15:58.121Z,15.80
2022-10-17T20:18:45.387Z,15.80
2022-10-17T20:21:35.079Z,15.80
2022-10-17T20:24:22.416Z,15.70
2022-10-17T20:27:09.623Z,15.70
2022-10-17T20:30:01.666Z,15.60
2022-10-17T20:32:55.058Z,15.60
2022-10-17T20:38:32.041Z,15.50
2022-10-17T20:41:19.801Z,15.50
2022-10-17T20:44:08.111Z,15.40
2022-10-17T20:47:02.336Z,15.40
2022-10-17T20:49:51.009Z,15.40
2022-10-17T20:52:38.292Z,15.30
2022-10-17T20:55:25.753Z,15.30
2022-10-17T20:58:13.795Z,15.30
2022-10-17T21:01:06.285Z,15.30
2022-10-17T21:03:53.832Z,15.20
2022-10-17T21:06:42.012Z,15.20
2022-10-17T21:09:29.108Z,15.10
2022-10-17T21:12:25.992Z,15.10
2022-10-17T21:15:18.378Z,15.00
2022-10-17T21:18:05.303Z,15.00
2022-10-17T21:20:52.808Z,15.00
2022-10-17T21:23:42.538Z,14.90
2022-10-17T21:26:30.628Z,14.90
2022-10-17T21:29:17.958Z,14.80
2022-10-17T21:32:14.546Z,14.80
2022-10-17T21:35:12.698Z,14.80
2022-10-17T21:37:59.539Z,14.70
2022-10-17T21:40:51.481Z,14.70
2022-10-17T21:43:40.793Z,14.70
2022-10-17T21:46:29.091Z,14.70
2022-10-17T21:49:19.482Z,14.60
2022-10-17T21:52:07.300Z,14.60
2022-10-17T21:54:54.544Z,14.50
2022-10-17T21:57:42.743Z,14.60
2022-10-17T22:00:30.006Z,14.50
2022-10-17T22:03:17.333Z,14.40
2022-10-17T22:06:19.536Z,14.40
2022-10-17T22:09:16.252Z,14.40
2022-10-17T22:12:03.547Z,14.40
2022-10-17T22:14:52.261Z,14.30
2022-10-17T22:17:39.027Z,14.30
2022-10-17T22:20:26.318Z,14.20
2022-10-17T22:23:13.588Z,14.20
2022-10-17T22:26:01.248Z,14.20
2022-10-17T22:28:48.587Z,14.20
2022-10-17T22:31:38.704Z,14.20
2022-10-17T22:34:25.501Z,14.20
2022-10-17T22:37:12.384Z,14.10
2022-10-17T22:39:59.481Z,14.10
2022-10-17T22:42:46.653Z,14.10
2022-10-17T22:45:33.979Z,14.10
2022-10-17T22:48:23.574Z,14.00
2022-10-17T22:51:11.080Z,14.00
2022-10-17T22:53:58.536Z,14.00
2022-10-17T22:56:45.586Z,14.00
2022-10-17T22:59:32.725Z,13.90
2022-10-17T23:02:19.897Z,13.90
2022-10-17T23:05:09.417Z,13.90
2022-10-17T23:07:57.410Z,13.90
2022-10-17T23:10:45.389Z,13.80
2022-10-17T23:13:32.321Z,13.80
2022-10-17T23:16:19.643Z,13.80
2022-10-17T23:19:06.857Z,13.80
2022-10-17T23:21:55.319Z,13.80
2022-10-17T23:24:42.163Z,13.80
2022-10-17T23:30:18.501Z,13.70
2022-10-17T23:33:05.453Z,13.70
2022-10-17T23:35:52.520Z,13.70
2022-10-17T23:38:41.442Z,13.70
2022-10-17T23:41:29.055Z,13.70
2022-10-17T23:44:16.162Z,13.60
2022-10-17T23:47:03.184Z,13.60
2022-10-17T23:49:50.366Z,13.60
2022-10-17T23:52:37.305Z,13.60
2022-10-17T23:55:25.850Z,13.50
2022-10-17T23:58:13.026Z,13.50
